Mário Ribeiro Airport

SBMK · 米纳斯吉拉斯州, 巴西

METAR SBMK · Mário Ribeiro Airport

28 二月 08:00 LT
1h
罗盘
风向 的 Mário Ribeiro Airport 12/30
风: 0 kt, 0 beaufort


改变
0 ft 1.000 2.000 3.000 4.000 5.000
CAVOK
METAR SBMK 281100Z 00000KT CAVOK 25/20 Q1017

METAR Mário Ribeiro Airport - SBMK/MOC

Mário Ribeiro Airport是,巴西中的中型机场。 该机场位于纬度-16,70695和经度-43,81903。 该机场有一条跑道: 12/30. 本场的ICAO机场代码为SBMK。 该机场的IATA代码为MOC。 机场在Brasilia FIR中。

该航空气象观测是针对Mário Ribeiro Airport在2024年2月28日 08:00, 当地时间进行的。

机场观察

可变方向的风很小或没有风。

天气为CAVOK。这意味着在5.000 ft或MSA(最低安全高度)以下(以较高者为准)以下没有云。这也意味着没有观测到积雨云或高耸的积云,可见度为10 km 或者更多或更高。此外,不会有雾,降雨或其他重要天气。

温度和风寒是25 °C。 露点为20 °C,相对湿度为74%。 海平面上的气压为1017 hPa (QNH)。

白天

今天,太阳从05:54升起,在18:21降落。 这适用于Mário Ribeiro Airport,世界夏令时可能有所不同。 当地时间与世界标准时间之间的时差为-3 小时。 当前,没有夏令时有效。

公司介绍

我们没有关于这个机场的公司信息。

体会

到Vliegles.nl去找飞行课程,跳伞和其他飞行体验。 浏览页面,了解Mário Ribeiro Airport附近所有可用的活动。 你也可以使用搜索功能来寻找你所在地附近的特定飞行课程、跳伞或其他飞行体验。

跑道

Id 标题 侧风 逆风 侧风 %
12/30 096°-276°

逆风成分最大的方向会被突出显示,并用于横风计算。 这并不一定意味着这个方向在使用。

温度 & 天气

温度 25 °C
露点 20 °C
相对湿度 74%
Kp-index 2 (0-9)

白天

日出
05:54
中午
12:07
日落
18:21 (9:19)

小工具

你想在你的网站上有一个关于Mário Ribeiro Airport的当前航空天气(METAR)的小部件吗?

显示HTML代码
?>